createdAt,value
2019-02-23T00:00:14.428Z,9.33
2019-02-23T00:02:43.937Z,9.90
2019-02-23T00:05:13.493Z,9.83
2019-02-23T00:07:46.602Z,9.53
2019-02-23T00:10:16.073Z,9.10
2019-02-23T00:12:45.281Z,9.67
2019-02-23T00:15:18.209Z,9.10
2019-02-23T00:17:47.698Z,9.97
2019-02-23T00:20:19.163Z,9.50
2019-02-23T00:22:48.722Z,9.43
2019-02-23T00:25:20.093Z,10.20
2019-02-23T00:27:53.380Z,9.87
2019-02-23T00:30:23.047Z,9.40
2019-02-23T00:32:55.976Z,9.93
2019-02-23T00:35:27.250Z,9.00
2019-02-23T00:37:58.140Z,9.30
2019-02-23T00:40:27.745Z,9.73
2019-02-23T00:42:57.216Z,9.17
2019-02-23T00:45:26.666Z,8.47
2019-02-23T00:47:56.246Z,9.73
2019-02-23T00:50:26.915Z,9.67
2019-02-23T00:52:56.614Z,9.50
2019-02-23T00:55:26.126Z,8.33
2019-02-23T00:57:55.699Z,8.83
2019-02-23T01:00:25.239Z,8.50
2019-02-23T01:02:54.713Z,8.53
2019-02-23T01:05:25.318Z,8.17
2019-02-23T01:07:56.394Z,9.17
2019-02-23T01:10:28.599Z,8.67
2019-02-23T01:13:03.003Z,8.97
2019-02-23T01:15:34.051Z,8.47
2019-02-23T01:18:05.424Z,8.27
2019-02-23T01:20:36.001Z,7.63
2019-02-23T01:23:08.535Z,8.90
2019-02-23T01:25:38.048Z,9.37
2019-02-23T01:28:10.439Z,9.17
2019-02-23T01:30:39.964Z,8.77
2019-02-23T01:33:09.162Z,9.90
2019-02-23T01:35:38.176Z,9.30
2019-02-23T01:38:07.195Z,8.50
2019-02-23T01:40:38.949Z,9.20
2019-02-23T01:43:08.193Z,9.90
2019-02-23T01:45:42.287Z,9.93
2019-02-23T01:48:07.848Z,8.77
2019-02-23T01:50:36.846Z,9.40
2019-02-23T01:53:05.873Z,10.50
2019-02-23T01:55:34.797Z,9.97
2019-02-23T01:58:03.878Z,9.00
2019-02-23T02:00:33.533Z,10.53
2019-02-23T02:03:02.803Z,9.53
2019-02-23T02:05:32.229Z,9.67
2019-02-23T02:08:01.163Z,10.83
2019-02-23T02:10:30.162Z,10.40
2019-02-23T02:12:59.102Z,11.30
2019-02-23T02:15:28.321Z,11.27
2019-02-23T02:17:57.772Z,11.60
2019-02-23T02:20:26.790Z,11.00
2019-02-23T02:22:55.834Z,9.80
2019-02-23T02:25:24.958Z,10.20
2019-02-23T02:27:54.010Z,12.57
2019-02-23T02:30:23.035Z,11.77
2019-02-23T02:32:52.078Z,11.73
2019-02-23T02:35:21.086Z,10.70
2019-02-23T02:37:50.098Z,11.00
2019-02-23T02:40:19.016Z,11.33
2019-02-23T02:42:48.740Z,11.97
2019-02-23T02:45:18.245Z,11.80
2019-02-23T02:47:47.441Z,11.70
2019-02-23T02:50:24.418Z,12.27
2019-02-23T02:52:47.798Z,11.57
2019-02-23T02:55:16.709Z,11.43
2019-02-23T02:57:45.635Z,14.07
2019-02-23T03:00:14.730Z,13.47
2019-02-23T03:02:43.721Z,13.00
2019-02-23T03:05:13.211Z,13.93
2019-02-23T03:07:42.157Z,14.60
2019-02-23T03:10:11.493Z,15.23
2019-02-23T03:12:40.496Z,16.47
2019-02-23T03:15:09.507Z,14.97
2019-02-23T03:17:38.356Z,16.00
2019-02-23T03:20:08.385Z,14.80
2019-02-23T03:22:37.615Z,15.00
2019-02-23T03:25:07.223Z,16.13
2019-02-23T03:27:36.141Z,17.63
2019-02-23T03:30:06.099Z,16.90
2019-02-23T03:32:34.957Z,16.43
2019-02-23T03:35:04.143Z,16.53
2019-02-23T03:37:33.071Z,16.67
2019-02-23T03:40:02.330Z,16.70
2019-02-23T03:42:31.533Z,16.87
2019-02-23T03:45:00.528Z,16.03
2019-02-23T03:47:29.445Z,16.80
2019-02-23T03:49:58.713Z,17.00
2019-02-23T03:52:27.710Z,16.83
2019-02-23T03:54:56.869Z,17.13
2019-02-23T03:57:25.869Z,18.80
2019-02-23T03:59:55.397Z,16.77
2019-02-23T04:02:24.323Z,16.93
2019-02-23T04:04:53.317Z,18.20
2019-02-23T04:07:22.317Z,18.10
2019-02-23T04:09:51.265Z,16.57
2019-02-23T04:12:20.128Z,17.43
2019-02-23T04:14:49.459Z,18.27
2019-02-23T04:17:18.461Z,17.53
2019-02-23T04:19:47.421Z,18.03
2019-02-23T04:22:16.447Z,17.40
2019-02-23T04:24:45.487Z,18.97
2019-02-23T04:27:14.507Z,18.87
2019-02-23T04:29:46.825Z,19.60
2019-02-23T04:32:14.291Z,18.07
2019-02-23T04:34:43.336Z,18.80
2019-02-23T04:37:12.270Z,19.23
2019-02-23T04:39:41.300Z,17.80
2019-02-23T04:42:10.306Z,18.27
2019-02-23T04:44:39.314Z,16.50
2019-02-23T04:47:08.310Z,17.13
2019-02-23T04:49:37.489Z,16.70
2019-02-23T04:52:06.409Z,15.93
2019-02-23T04:54:39.213Z,15.93
2019-02-23T04:57:08.444Z,15.83
2019-02-23T04:59:37.562Z,14.53
2019-02-23T05:02:06.553Z,15.60
2019-02-23T05:04:35.488Z,14.00
2019-02-23T05:07:04.729Z,14.27
2019-02-23T05:09:33.657Z,12.37
2019-02-23T05:12:02.650Z,13.77
2019-02-23T05:14:31.954Z,12.57
2019-02-23T05:17:00.793Z,13.97
2019-02-23T05:19:29.718Z,12.77
2019-02-23T05:21:58.648Z,13.13
2019-02-23T05:24:27.498Z,13.27
2019-02-23T05:26:56.870Z,11.27
2019-02-23T05:29:25.721Z,12.80
2019-02-23T05:31:54.658Z,13.47
2019-02-23T05:34:23.844Z,12.60
2019-02-23T05:36:52.757Z,11.73
2019-02-23T05:39:21.929Z,11.70
2019-02-23T05:41:51.024Z,10.77
2019-02-23T05:44:19.880Z,10.73
2019-02-23T05:46:48.809Z,11.33
2019-02-23T05:49:17.754Z,11.03
2019-02-23T05:51:46.906Z,9.93
2019-02-23T05:54:15.837Z,10.53
2019-02-23T05:56:45.077Z,10.20
2019-02-23T05:59:14.031Z,10.03
2019-02-23T06:01:43.257Z,10.40
2019-02-23T06:04:12.190Z,9.40
2019-02-23T06:06:41.106Z,10.33
2019-02-23T06:09:10.100Z,9.73
2019-02-23T06:11:38.948Z,10.13
2019-02-23T06:14:07.949Z,9.50
2019-02-23T06:16:36.861Z,9.33
2019-02-23T06:19:06.127Z,8.27
2019-02-23T06:21:35.053Z,8.57
2019-02-23T06:24:04.401Z,8.40
2019-02-23T06:26:33.604Z,10.43
2019-02-23T06:29:02.518Z,9.10
2019-02-23T06:31:31.522Z,9.07
2019-02-23T06:34:00.678Z,8.87
2019-02-23T06:36:29.546Z,7.50
2019-02-23T06:38:58.488Z,8.83
2019-02-23T06:41:27.540Z,8.20
2019-02-23T06:43:56.556Z,8.63
2019-02-23T06:46:25.586Z,8.63
2019-02-23T06:48:54.470Z,8.50
2019-02-23T06:51:23.507Z,8.70
2019-02-23T06:53:52.523Z,9.23
2019-02-23T06:56:21.548Z,8.63
2019-02-23T06:58:50.574Z,8.37
2019-02-23T07:01:19.606Z,7.93
2019-02-23T07:03:48.610Z,7.53
2019-02-23T07:06:17.550Z,7.10
2019-02-23T07:08:46.790Z,7.30
2019-02-23T07:11:17.426Z,8.20
2019-02-23T07:13:46.905Z,7.27
2019-02-23T07:16:16.189Z,7.90
2019-02-23T07:18:45.029Z,8.03
2019-02-23T07:21:14.030Z,7.73
2019-02-23T07:23:42.934Z,7.03
2019-02-23T07:26:11.869Z,7.27
2019-02-23T07:28:41.062Z,7.27
2019-02-23T07:31:09.936Z,7.30
2019-02-23T07:33:39.337Z,6.70
2019-02-23T07:36:08.348Z,7.60
2019-02-23T07:38:37.190Z,7.00
2019-02-23T07:41:06.194Z,7.90
2019-02-23T07:43:35.722Z,7.33
2019-02-23T07:46:04.713Z,6.13
2019-02-23T07:48:33.624Z,6.27
2019-02-23T07:51:02.478Z,6.20
2019-02-23T07:53:31.389Z,6.03
2019-02-23T07:56:00.390Z,6.93
2019-02-23T07:58:29.238Z,6.67
2019-02-23T08:00:58.234Z,6.17
2019-02-23T08:03:27.073Z,6.27
2019-02-23T08:05:55.922Z,7.40
2019-02-23T08:08:25.121Z,7.70
2019-02-23T08:10:54.049Z,7.07
2019-02-23T08:13:23.522Z,6.63
2019-02-23T08:15:52.632Z,6.73
2019-02-23T08:18:21.465Z,6.73
2019-02-23T08:20:50.328Z,6.80
2019-02-23T08:23:19.902Z,6.43
2019-02-23T08:25:49.078Z,6.83
2019-02-23T08:28:18.185Z,6.40
2019-02-23T08:30:47.501Z,5.63
2019-02-23T08:33:16.337Z,6.27
2019-02-23T08:35:45.283Z,5.07
2019-02-23T08:38:14.217Z,5.03
2019-02-23T08:40:43.197Z,5.40
2019-02-23T08:43:12.118Z,5.57
2019-02-23T08:45:41.310Z,6.23
2019-02-23T08:48:10.309Z,5.93
2019-02-23T08:50:39.205Z,4.07
2019-02-23T08:53:08.394Z,4.37
2019-02-23T08:55:37.230Z,5.00
2019-02-23T08:58:06.413Z,4.80
2019-02-23T09:00:38.773Z,4.40
2019-02-23T09:03:07.887Z,4.07
2019-02-23T09:05:37.146Z,3.83
2019-02-23T09:08:06.389Z,4.40
2019-02-23T09:10:35.637Z,4.27
2019-02-23T09:13:04.957Z,4.07
2019-02-23T09:15:33.982Z,3.50
2019-02-23T09:18:02.943Z,3.33
2019-02-23T09:20:31.963Z,4.33
2019-02-23T09:23:00.993Z,4.77
2019-02-23T09:25:30.012Z,3.90
2019-02-23T09:27:59.034Z,3.90
2019-02-23T09:30:28.057Z,5.13
2019-02-23T09:32:57.091Z,4.77
2019-02-23T09:35:26.117Z,4.30
2019-02-23T09:37:55.130Z,4.27
2019-02-23T09:40:23.981Z,3.33
2019-02-23T09:42:52.993Z,3.47
2019-02-23T09:45:21.907Z,4.83
2019-02-23T09:47:50.834Z,4.00
2019-02-23T09:50:20.350Z,3.83
2019-02-23T09:52:49.274Z,3.80
2019-02-23T09:55:18.201Z,4.03
2019-02-23T09:57:47.210Z,4.57
2019-02-23T10:00:16.493Z,5.07
2019-02-23T10:02:45.491Z,4.70
2019-02-23T10:05:14.676Z,3.77
2019-02-23T10:07:43.524Z,3.93
2019-02-23T10:10:12.610Z,3.20
2019-02-23T10:12:41.617Z,3.10
2019-02-23T10:15:10.895Z,3.10
2019-02-23T10:17:39.993Z,4.33
2019-02-23T10:20:09.535Z,3.43
2019-02-23T10:22:39.635Z,4.40
2019-02-23T10:25:09.009Z,4.10
2019-02-23T10:27:38.329Z,3.90
2019-02-23T10:30:08.881Z,3.50
2019-02-23T10:32:37.801Z,3.80
2019-02-23T10:35:07.786Z,4.43
2019-02-23T10:37:36.702Z,4.30
2019-02-23T10:40:07.125Z,4.20
2019-02-23T10:42:36.001Z,4.07
2019-02-23T10:45:05.701Z,4.53
2019-02-23T10:47:34.942Z,4.57
2019-02-23T10:50:04.341Z,4.70
2019-02-23T10:52:33.481Z,4.90
2019-02-23T10:55:02.469Z,5.50
2019-02-23T10:57:31.378Z,5.80
2019-02-23T11:00:00.546Z,6.27
2019-02-23T11:02:29.376Z,5.60
2019-02-23T11:04:58.309Z,5.33
2019-02-23T11:07:27.299Z,7.00
2019-02-23T11:09:56.925Z,6.37
2019-02-23T11:12:25.909Z,6.63
2019-02-23T11:14:54.835Z,7.43
2019-02-23T11:17:23.817Z,5.90
2019-02-23T11:19:52.816Z,6.73
2019-02-23T11:22:21.805Z,6.80
2019-02-23T11:24:51.052Z,7.77
2019-02-23T11:27:19.963Z,5.83
2019-02-23T11:29:49.237Z,6.63
2019-02-23T11:32:18.068Z,6.53
2019-02-23T11:34:47.065Z,7.47
2019-02-23T11:37:16.332Z,6.37
2019-02-23T11:39:45.182Z,5.97
2019-02-23T11:42:14.162Z,6.00
2019-02-23T11:44:43.085Z,6.43
2019-02-23T11:47:12.013Z,6.40
2019-02-23T11:49:40.933Z,5.43
2019-02-23T11:52:10.158Z,5.87
2019-02-23T11:54:39.289Z,5.17
2019-02-23T11:57:08.285Z,5.80
2019-02-23T11:59:37.552Z,5.37
2019-02-23T12:02:06.557Z,5.57
2019-02-23T12:04:35.401Z,6.33
2019-02-23T12:07:04.660Z,6.37
2019-02-23T12:09:33.762Z,7.23
2019-02-23T12:12:02.685Z,5.40
2019-02-23T12:14:31.642Z,6.10
2019-02-23T12:17:00.602Z,6.13
2019-02-23T12:19:29.505Z,5.63
2019-02-23T12:21:58.546Z,6.53
2019-02-23T12:24:27.498Z,6.27
2019-02-23T12:26:56.561Z,6.23
2019-02-23T12:29:25.577Z,6.03
2019-02-23T12:31:54.602Z,5.87
2019-02-23T12:34:23.632Z,4.87
2019-02-23T12:37:11.749Z,5.93
2019-02-23T12:39:41.009Z,5.70
2019-02-23T12:42:10.013Z,6.37
2019-02-23T12:44:38.938Z,5.73
2019-02-23T12:47:14.336Z,5.70
2019-02-23T12:49:43.473Z,5.60
2019-02-23T12:52:13.018Z,5.83
2019-02-23T12:54:42.330Z,5.73
2019-02-23T12:57:11.649Z,5.60
2019-02-23T12:59:41.127Z,5.67
2019-02-23T13:02:10.303Z,5.43
2019-02-23T13:04:39.428Z,5.77
2019-02-23T13:07:08.838Z,5.37
2019-02-23T13:09:42.313Z,6.17
2019-02-23T13:12:48.341Z,6.40
2019-02-23T13:15:23.722Z,5.73
2019-02-23T13:18:33.573Z,5.97
2019-02-23T13:21:44.536Z,4.63
2019-02-23T13:24:54.795Z,5.07
2019-02-23T13:27:56.838Z,5.03
2019-02-23T13:30:58.081Z,4.27
2019-02-23T13:34:13.922Z,4.03
2019-02-23T13:37:36.457Z,5.63
2019-02-23T13:40:49.062Z,3.50
2019-02-23T13:43:50.134Z,5.00
2019-02-23T13:46:52.617Z,3.13
2019-02-23T13:49:58.003Z,4.57
2019-02-23T13:53:04.154Z,3.33
2019-02-23T13:56:04.381Z,3.43
2019-02-23T13:59:00.868Z,4.20
2019-02-23T14:01:57.615Z,3.70
2019-02-23T14:04:40.842Z,3.57
2019-02-23T14:07:22.290Z,3.60
2019-02-23T14:10:27.223Z,4.67
2019-02-23T14:13:22.585Z,3.80
2019-02-23T14:16:22.525Z,3.73
2019-02-23T14:19:23.212Z,3.80
2019-02-23T14:22:23.645Z,4.40
2019-02-23T14:25:18.784Z,3.67
2019-02-23T14:28:06.720Z,3.17
2019-02-23T14:31:16.526Z,4.50
2019-02-23T14:34:26.631Z,3.23
2019-02-23T14:37:30.577Z,3.10
2019-02-23T14:40:37.940Z,3.43
2019-02-23T14:43:49.753Z,3.60
2019-02-23T14:46:58.337Z,2.53
2019-02-23T14:50:29.733Z,3.20
2019-02-23T14:53:39.071Z,2.77
2019-02-23T14:56:55.149Z,2.93
2019-02-23T14:59:54.686Z,3.80
2019-02-23T15:03:17.313Z,2.90
2019-02-23T15:06:27.358Z,3.10
2019-02-23T15:09:18.706Z,2.67
2019-02-23T15:12:34.209Z,3.07
2019-02-23T15:15:20.108Z,3.30
2019-02-23T15:18:39.405Z,4.00
2019-02-23T15:21:41.558Z,3.07
2019-02-23T15:24:33.527Z,3.70
2019-02-23T15:27:49.773Z,3.20
2019-02-23T15:30:47.050Z,2.50
2019-02-23T15:33:53.881Z,3.03
2019-02-23T15:36:45.452Z,3.27
2019-02-23T15:39:58.737Z,2.47
2019-02-23T15:43:15.450Z,3.30
2019-02-23T15:46:17.926Z,2.87
2019-02-23T15:49:36.802Z,2.57
2019-02-23T15:52:07.206Z,2.63
2019-02-23T15:54:36.574Z,3.27
2019-02-23T15:57:05.913Z,2.80
2019-02-23T15:59:34.773Z,2.80
2019-02-23T16:02:03.777Z,2.47
2019-02-23T16:04:33.172Z,2.80
2019-02-23T16:07:02.106Z,3.23
2019-02-23T16:09:31.275Z,3.03
2019-02-23T16:12:00.269Z,2.93
2019-02-23T16:14:29.181Z,2.13
2019-02-23T16:16:58.189Z,2.50
2019-02-23T16:19:27.029Z,2.80
2019-02-23T16:21:55.953Z,3.23
2019-02-23T16:24:24.936Z,3.00
2019-02-23T16:26:54.049Z,2.77
2019-02-23T16:29:23.029Z,2.77
2019-02-23T16:31:51.946Z,2.67
2019-02-23T16:34:20.861Z,2.53
2019-02-23T16:36:49.797Z,2.87
2019-02-23T16:39:18.999Z,2.60
2019-02-23T16:41:47.973Z,2.63
2019-02-23T16:44:16.905Z,2.67
2019-02-23T16:46:46.502Z,1.80
2019-02-23T16:49:15.618Z,2.67
2019-02-23T16:51:45.166Z,2.40
2019-02-23T16:54:14.082Z,2.30
2019-02-23T16:56:43.070Z,1.90
2019-02-23T16:59:11.997Z,2.57
2019-02-23T17:01:47.313Z,2.07
2019-02-23T17:04:16.759Z,1.83
2019-02-23T17:06:45.657Z,2.50
2019-02-23T17:09:14.674Z,2.87
2019-02-23T17:11:43.684Z,2.70
2019-02-23T17:14:12.584Z,2.47
2019-02-23T17:16:41.437Z,3.10
2019-02-23T17:19:10.450Z,2.73
2019-02-23T17:21:39.313Z,3.30
2019-02-23T17:24:08.750Z,2.67
2019-02-23T17:26:37.571Z,3.57
2019-02-23T17:29:06.600Z,2.77
2019-02-23T17:31:35.910Z,2.53
2019-02-23T17:34:05.117Z,2.40
2019-02-23T17:36:34.141Z,3.23
2019-02-23T17:39:03.209Z,2.70
2019-02-23T17:41:32.045Z,2.87
2019-02-23T17:44:00.975Z,3.20
2019-02-23T17:46:30.157Z,2.83
2019-02-23T17:48:59.024Z,2.80
2019-02-23T17:51:27.937Z,2.60
2019-02-23T17:53:56.785Z,3.03
2019-02-23T17:56:25.635Z,3.00
2019-02-23T17:58:54.504Z,3.13
2019-02-23T18:01:23.456Z,2.30
2019-02-23T18:03:52.394Z,3.00
2019-02-23T18:06:21.418Z,2.70
2019-02-23T18:08:50.370Z,2.53
2019-02-23T18:11:19.284Z,3.60
2019-02-23T18:13:48.213Z,3.17
2019-02-23T18:16:17.056Z,2.73
2019-02-23T18:18:46.071Z,2.60
2019-02-23T18:21:14.982Z,2.20
2019-02-23T18:23:44.388Z,2.53
2019-02-23T18:26:20.919Z,2.63
2019-02-23T18:28:44.567Z,2.43
2019-02-23T18:31:13.773Z,3.00
2019-02-23T18:33:43.981Z,2.60
2019-02-23T18:36:13.103Z,3.13
2019-02-23T18:38:49.847Z,4.57
2019-02-23T18:41:19.220Z,3.30
2019-02-23T18:43:48.288Z,3.03
2019-02-23T18:46:17.233Z,3.10
2019-02-23T18:48:46.561Z,4.23
2019-02-23T18:51:15.678Z,2.87
2019-02-23T18:53:44.766Z,3.10
2019-02-23T18:56:13.914Z,3.17
2019-02-23T18:58:42.857Z,2.70
2019-02-23T19:01:11.789Z,3.23
2019-02-23T19:03:40.710Z,3.00
2019-02-23T19:06:09.617Z,3.30
2019-02-23T19:08:38.774Z,3.50
2019-02-23T19:11:07.693Z,3.90
2019-02-23T19:13:36.865Z,3.50
2019-02-23T19:16:05.869Z,3.87
2019-02-23T19:18:34.781Z,3.73
2019-02-23T19:21:04.060Z,3.40
2019-02-23T19:23:32.893Z,3.50
2019-02-23T19:26:01.749Z,4.17
2019-02-23T19:28:30.585Z,3.40
2019-02-23T19:30:59.713Z,2.80
2019-02-23T19:33:28.798Z,2.80
2019-02-23T19:35:57.718Z,2.83
2019-02-23T19:38:26.711Z,3.53
2019-02-23T19:40:55.885Z,3.60
2019-02-23T19:43:24.798Z,2.80
2019-02-23T19:45:53.645Z,3.50
2019-02-23T19:48:22.562Z,3.07
2019-02-23T19:50:55.283Z,3.10
2019-02-23T19:53:24.192Z,2.33
2019-02-23T19:55:53.189Z,2.40
2019-02-23T19:58:22.022Z,2.50
2019-02-23T20:00:51.037Z,2.97
2019-02-23T20:03:19.945Z,2.90
2019-02-23T20:05:48.797Z,3.20
2019-02-23T20:08:17.714Z,2.53
2019-02-23T20:10:46.710Z,2.70
2019-02-23T20:13:15.552Z,3.27
2019-02-23T20:15:44.545Z,3.50
2019-02-23T20:18:13.733Z,3.53
2019-02-23T20:21:01.768Z,3.00
2019-02-23T20:23:30.604Z,2.70
2019-02-23T20:25:59.953Z,2.43
2019-02-23T20:28:28.875Z,2.97
2019-02-23T20:30:57.817Z,3.87
2019-02-23T20:33:27.577Z,3.90
2019-02-23T20:35:56.445Z,2.67
2019-02-23T20:38:25.356Z,3.27
2019-02-23T20:40:54.345Z,2.90
2019-02-23T20:43:23.274Z,3.33
2019-02-23T20:45:52.244Z,2.87
2019-02-23T20:48:21.161Z,2.93
2019-02-23T20:50:50.095Z,3.27
2019-02-23T20:53:19.113Z,3.40
2019-02-23T20:55:48.234Z,3.27
2019-02-23T20:58:17.233Z,3.43
2019-02-23T21:00:46.342Z,2.83
2019-02-23T21:03:15.329Z,3.10
2019-02-23T21:05:44.254Z,3.13
2019-02-23T21:08:13.244Z,2.90
2019-02-23T21:10:42.194Z,2.67
2019-02-23T21:13:11.040Z,2.60
2019-02-23T21:15:39.912Z,3.43
2019-02-23T21:18:08.808Z,2.07
2019-02-23T21:20:37.797Z,2.70
2019-02-23T21:23:06.654Z,2.60
2019-02-23T21:25:36.565Z,2.47
2019-02-23T21:28:05.519Z,3.10
2019-02-23T21:30:35.905Z,2.67
2019-02-23T21:33:04.976Z,3.33
2019-02-23T21:35:33.994Z,3.23
2019-02-23T21:38:02.954Z,2.30
2019-02-23T21:40:31.969Z,2.20
2019-02-23T21:43:00.905Z,3.23
2019-02-23T21:45:29.827Z,2.57
2019-02-23T21:47:58.781Z,3.40
2019-02-23T21:50:27.801Z,3.27
2019-02-23T21:52:56.683Z,3.13
2019-02-23T21:55:25.618Z,3.67
2019-02-23T21:57:54.602Z,2.67
2019-02-23T22:00:23.617Z,3.03
2019-02-23T22:02:52.567Z,3.30
2019-02-23T22:05:21.599Z,3.37
2019-02-23T22:07:50.541Z,2.90
2019-02-23T22:10:19.528Z,3.17
2019-02-23T22:12:48.392Z,2.67
2019-02-23T22:15:17.306Z,3.40
2019-02-23T22:17:46.162Z,3.00
2019-02-23T22:20:36.307Z,2.33
2019-02-23T22:23:05.058Z,3.43
2019-02-23T22:25:34.093Z,3.00
2019-02-23T22:28:03.193Z,3.00
2019-02-23T22:30:51.231Z,3.07
2019-02-23T22:33:20.260Z,2.53
2019-02-23T22:35:49.175Z,2.90
2019-02-23T22:38:18.115Z,3.20
2019-02-23T22:40:47.040Z,2.97
2019-02-23T22:43:17.307Z,3.17
2019-02-23T22:45:46.306Z,3.40
2019-02-23T22:48:15.340Z,2.67
2019-02-23T22:50:44.438Z,3.73
2019-02-23T22:53:13.462Z,3.23
2019-02-23T22:55:42.492Z,3.10
2019-02-23T22:58:30.631Z,4.03
2019-02-23T23:01:02.790Z,4.07
2019-02-23T23:03:31.983Z,2.70
2019-02-23T23:06:01.041Z,2.50
2019-02-23T23:08:29.895Z,3.30
2019-02-23T23:10:58.897Z,2.70
2019-02-23T23:13:27.825Z,2.33
2019-02-23T23:15:56.741Z,2.90
2019-02-23T23:18:25.593Z,3.20
2019-02-23T23:20:54.513Z,2.30
2019-02-23T23:23:23.517Z,2.30
2019-02-23T23:25:52.441Z,3.13
2019-02-23T23:28:21.453Z,2.60
2019-02-23T23:30:50.305Z,2.30
2019-02-23T23:33:19.233Z,2.47
2019-02-23T23:35:48.234Z,2.33
2019-02-23T23:38:17.473Z,2.70
2019-02-23T23:40:46.460Z,2.90
2019-02-23T23:43:15.391Z,2.23
2019-02-23T23:45:44.304Z,2.63
2019-02-23T23:48:13.177Z,3.00
2019-02-23T23:50:42.822Z,2.30
2019-02-23T23:53:11.789Z,2.50
2019-02-23T23:55:40.711Z,3.03
2019-02-23T23:58:09.910Z,3.10
